sensor_id;sensor_type;location;lat;lon;timestamp;P1;durP1;ratioP1;P2;durP2;ratioP2
62788;SDS011;66401;42.016;21.454;2023-02-28T00:03:19;23.53;;;12.50;;
62788;SDS011;66401;42.016;21.454;2023-02-28T00:05:45;22.13;;;12.93;;
62788;SDS011;66401;42.016;21.454;2023-02-28T00:08:10;22.40;;;13.07;;
62788;SDS011;66401;42.016;21.454;2023-02-28T00:10:36;30.50;;;13.63;;
62788;SDS011;66401;42.016;21.454;2023-02-28T00:13:03;30.03;;;14.47;;
62788;SDS011;66401;42.016;21.454;2023-02-28T00:15:31;30.20;;;13.67;;
62788;SDS011;66401;42.016;21.454;2023-02-28T00:17:57;23.97;;;13.07;;
62788;SDS011;66401;42.016;21.454;2023-02-28T00:20:23;24.63;;;13.20;;
62788;SDS011;66401;42.016;21.454;2023-02-28T00:22:50;26.27;;;12.67;;
62788;SDS011;66401;42.016;21.454;2023-02-28T00:25:21;27.90;;;13.60;;
62788;SDS011;66401;42.016;21.454;2023-02-28T00:27:48;25.23;;;12.30;;
62788;SDS011;66401;42.016;21.454;2023-02-28T00:30:16;22.77;;;12.63;;
62788;SDS011;66401;42.016;21.454;2023-02-28T00:32:44;24.50;;;13.03;;
62788;SDS011;66401;42.016;21.454;2023-02-28T00:35:09;27.33;;;12.90;;
62788;SDS011;66401;42.016;21.454;2023-02-28T00:37:36;22.80;;;11.93;;
62788;SDS011;66401;42.016;21.454;2023-02-28T00:40:02;27.13;;;13.70;;
62788;SDS011;66401;42.016;21.454;2023-02-28T00:42:30;28.87;;;12.33;;
62788;SDS011;66401;42.016;21.454;2023-02-28T00:44:55;27.20;;;13.60;;
62788;SDS011;66401;42.016;21.454;2023-02-28T00:47:21;22.30;;;13.17;;
62788;SDS011;66401;42.016;21.454;2023-02-28T00:49:46;23.90;;;11.93;;
62788;SDS011;66401;42.016;21.454;2023-02-28T00:52:12;24.33;;;12.23;;
62788;SDS011;66401;42.016;21.454;2023-02-28T00:54:37;24.20;;;12.20;;
62788;SDS011;66401;42.016;21.454;2023-02-28T00:57:03;25.93;;;12.97;;
62788;SDS011;66401;42.016;21.454;2023-02-28T00:59:28;29.67;;;13.27;;
62788;SDS011;66401;42.016;21.454;2023-02-28T01:01:54;24.60;;;13.50;;
62788;SDS011;66401;42.016;21.454;2023-02-28T01:04:19;23.83;;;12.87;;
62788;SDS011;66401;42.016;21.454;2023-02-28T01:06:45;26.73;;;13.00;;
62788;SDS011;66401;42.016;21.454;2023-02-28T01:09:11;28.67;;;13.37;;
62788;SDS011;66401;42.016;21.454;2023-02-28T01:11:37;25.63;;;13.47;;
62788;SDS011;66401;42.016;21.454;2023-02-28T01:14:04;23.90;;;11.87;;
62788;SDS011;66401;42.016;21.454;2023-02-28T01:16:30;25.83;;;11.80;;
62788;SDS011;66401;42.016;21.454;2023-02-28T01:18:56;24.67;;;11.83;;
62788;SDS011;66401;42.016;21.454;2023-02-28T01:21:22;22.43;;;11.90;;
62788;SDS011;66401;42.016;21.454;2023-02-28T01:23:48;22.33;;;11.80;;
62788;SDS011;66401;42.016;21.454;2023-02-28T01:26:16;25.47;;;12.90;;
62788;SDS011;66401;42.016;21.454;2023-02-28T01:28:43;26.67;;;12.53;;
62788;SDS011;66401;42.016;21.454;2023-02-28T01:31:09;23.90;;;11.77;;
62788;SDS011;66401;42.016;21.454;2023-02-28T01:33:35;21.23;;;11.33;;
62788;SDS011;66401;42.016;21.454;2023-02-28T01:36:01;24.70;;;12.27;;
62788;SDS011;66401;42.016;21.454;2023-02-28T01:38:29;25.67;;;12.07;;
62788;SDS011;66401;42.016;21.454;2023-02-28T01:40:55;23.50;;;11.80;;
62788;SDS011;66401;42.016;21.454;2023-02-28T01:43:30;23.30;;;11.90;;
62788;SDS011;66401;42.016;21.454;2023-02-28T01:46:16;23.77;;;11.30;;
62788;SDS011;66401;42.016;21.454;2023-02-28T01:48:52;23.97;;;12.00;;
62788;SDS011;66401;42.016;21.454;2023-02-28T01:51:25;24.73;;;12.73;;
62788;SDS011;66401;42.016;21.454;2023-02-28T01:53:56;25.10;;;11.40;;
62788;SDS011;66401;42.016;21.454;2023-02-28T01:56:27;23.07;;;12.07;;
62788;SDS011;66401;42.016;21.454;2023-02-28T01:58:55;24.27;;;12.00;;
62788;SDS011;66401;42.016;21.454;2023-02-28T02:01:22;21.20;;;12.10;;
62788;SDS011;66401;42.016;21.454;2023-02-28T02:03:56;22.40;;;11.30;;
62788;SDS011;66401;42.016;21.454;2023-02-28T02:06:26;22.87;;;10.87;;
62788;SDS011;66401;42.016;21.454;2023-02-28T02:08:55;24.93;;;10.97;;
62788;SDS011;66401;42.016;21.454;2023-02-28T02:11:21;23.63;;;11.13;;
62788;SDS011;66401;42.016;21.454;2023-02-28T02:30:43;23.87;;;11.47;;
62788;SDS011;66401;42.016;21.454;2023-02-28T02:36:51;24.37;;;11.07;;
62788;SDS011;66401;42.016;21.454;2023-02-28T02:45:44;25.70;;;11.80;;
62788;SDS011;66401;42.016;21.454;2023-02-28T02:47:55;25.37;;;13.50;;
62788;SDS011;66401;42.016;21.454;2023-02-28T02:50:25;27.53;;;12.00;;
62788;SDS011;66401;42.016;21.454;2023-02-28T02:52:55;26.67;;;13.37;;
62788;SDS011;66401;42.016;21.454;2023-02-28T02:55:25;26.43;;;11.50;;
62788;SDS011;66401;42.016;21.454;2023-02-28T02:57:55;26.90;;;12.27;;
62788;SDS011;66401;42.016;21.454;2023-02-28T03:00:27;23.57;;;12.17;;
62788;SDS011;66401;42.016;21.454;2023-02-28T03:02:58;30.53;;;13.07;;
62788;SDS011;66401;42.016;21.454;2023-02-28T03:05:26;28.10;;;12.67;;
62788;SDS011;66401;42.016;21.454;2023-02-28T03:07:54;23.23;;;11.77;;
62788;SDS011;66401;42.016;21.454;2023-02-28T03:24:31;24.47;;;12.57;;
62788;SDS011;66401;42.016;21.454;2023-02-28T03:27:16;23.70;;;12.90;;
62788;SDS011;66401;42.016;21.454;2023-02-28T03:29:51;24.70;;;13.17;;
62788;SDS011;66401;42.016;21.454;2023-02-28T03:32:34;24.57;;;11.67;;
62788;SDS011;66401;42.016;21.454;2023-02-28T03:36:05;25.47;;;12.63;;
62788;SDS011;66401;42.016;21.454;2023-02-28T03:38:18;25.00;;;12.23;;
62788;SDS011;66401;42.016;21.454;2023-02-28T03:40:51;29.63;;;12.27;;
62788;SDS011;66401;42.016;21.454;2023-02-28T03:43:28;25.77;;;13.00;;
62788;SDS011;66401;42.016;21.454;2023-02-28T03:45:57;24.23;;;13.10;;
62788;SDS011;66401;42.016;21.454;2023-02-28T03:48:40;24.90;;;12.93;;
62788;SDS011;66401;42.016;21.454;2023-02-28T03:51:10;26.97;;;13.37;;
62788;SDS011;66401;42.016;21.454;2023-02-28T03:53:43;27.13;;;13.97;;
62788;SDS011;66401;42.016;21.454;2023-02-28T03:56:32;28.73;;;14.67;;
62788;SDS011;66401;42.016;21.454;2023-02-28T03:59:05;25.93;;;13.07;;
62788;SDS011;66401;42.016;21.454;2023-02-28T04:01:39;29.97;;;14.43;;
62788;SDS011;66401;42.016;21.454;2023-02-28T04:04:07;24.27;;;13.30;;
62788;SDS011;66401;42.016;21.454;2023-02-28T04:06:34;31.10;;;14.13;;
62788;SDS011;66401;42.016;21.454;2023-02-28T04:09:00;30.70;;;14.37;;
62788;SDS011;66401;42.016;21.454;2023-02-28T04:11:39;29.43;;;13.50;;
62788;SDS011;66401;42.016;21.454;2023-02-28T04:14:07;28.60;;;14.27;;
62788;SDS011;66401;42.016;21.454;2023-02-28T04:16:34;26.70;;;14.87;;
62788;SDS011;66401;42.016;21.454;2023-02-28T04:19:05;30.17;;;14.50;;
62788;SDS011;66401;42.016;21.454;2023-02-28T04:21:33;24.87;;;13.77;;
62788;SDS011;66401;42.016;21.454;2023-02-28T04:24:10;27.47;;;13.27;;
62788;SDS011;66401;42.016;21.454;2023-02-28T04:26:39;28.67;;;13.73;;
62788;SDS011;66401;42.016;21.454;2023-02-28T04:29:10;26.13;;;13.47;;
62788;SDS011;66401;42.016;21.454;2023-02-28T04:31:38;27.67;;;14.67;;
62788;SDS011;66401;42.016;21.454;2023-02-28T04:34:04;29.33;;;13.63;;
62788;SDS011;66401;42.016;21.454;2023-02-28T04:36:29;24.30;;;13.00;;
62788;SDS011;66401;42.016;21.454;2023-02-28T04:38:55;28.27;;;13.47;;
62788;SDS011;66401;42.016;21.454;2023-02-28T04:41:21;22.13;;;12.00;;
62788;SDS011;66401;42.016;21.454;2023-02-28T04:43:47;27.03;;;13.57;;
62788;SDS011;66401;42.016;21.454;2023-02-28T04:46:13;28.50;;;13.27;;
62788;SDS011;66401;42.016;21.454;2023-02-28T04:48:39;28.13;;;14.27;;
62788;SDS011;66401;42.016;21.454;2023-02-28T04:51:06;30.43;;;13.87;;
62788;SDS011;66401;42.016;21.454;2023-02-28T04:53:34;24.10;;;12.23;;
62788;SDS011;66401;42.016;21.454;2023-02-28T04:56:01;30.23;;;13.43;;
62788;SDS011;66401;42.016;21.454;2023-02-28T04:58:26;28.23;;;13.20;;
62788;SDS011;66401;42.016;21.454;2023-02-28T05:00:53;25.57;;;12.63;;
62788;SDS011;66401;42.016;21.454;2023-02-28T05:03:26;26.20;;;13.67;;
62788;SDS011;66401;42.016;21.454;2023-02-28T05:05:51;26.47;;;12.73;;
62788;SDS011;66401;42.016;21.454;2023-02-28T05:08:17;22.00;;;12.07;;
62788;SDS011;66401;42.016;21.454;2023-02-28T05:10:42;26.67;;;12.67;;
62788;SDS011;66401;42.016;21.454;2023-02-28T05:13:10;23.73;;;12.53;;
62788;SDS011;66401;42.016;21.454;2023-02-28T05:15:36;26.73;;;13.30;;
62788;SDS011;66401;42.016;21.454;2023-02-28T05:18:03;24.20;;;12.57;;
62788;SDS011;66401;42.016;21.454;2023-02-28T05:20:29;26.80;;;13.90;;
62788;SDS011;66401;42.016;21.454;2023-02-28T05:22:54;24.17;;;12.37;;
62788;SDS011;66401;42.016;21.454;2023-02-28T05:25:22;24.97;;;13.10;;
62788;SDS011;66401;42.016;21.454;2023-02-28T05:27:48;23.63;;;12.83;;
62788;SDS011;66401;42.016;21.454;2023-02-28T05:30:14;23.60;;;12.80;;
62788;SDS011;66401;42.016;21.454;2023-02-28T05:32:40;22.87;;;12.63;;
62788;SDS011;66401;42.016;21.454;2023-02-28T05:35:08;24.60;;;12.73;;
62788;SDS011;66401;42.016;21.454;2023-02-28T05:37:35;26.93;;;13.17;;
62788;SDS011;66401;42.016;21.454;2023-02-28T05:40:02;29.30;;;14.10;;
62788;SDS011;66401;42.016;21.454;2023-02-28T05:42:31;28.27;;;14.10;;
62788;SDS011;66401;42.016;21.454;2023-02-28T05:44:56;30.87;;;13.97;;
62788;SDS011;66401;42.016;21.454;2023-02-28T05:47:22;32.60;;;14.33;;
62788;SDS011;66401;42.016;21.454;2023-02-28T05:49:47;26.63;;;14.67;;
62788;SDS011;66401;42.016;21.454;2023-02-28T05:52:13;22.80;;;14.00;;
62788;SDS011;66401;42.016;21.454;2023-02-28T05:54:39;30.33;;;13.73;;
62788;SDS011;66401;42.016;21.454;2023-02-28T05:57:04;27.83;;;13.67;;
62788;SDS011;66401;42.016;21.454;2023-02-28T05:59:30;28.40;;;14.07;;
62788;SDS011;66401;42.016;21.454;2023-02-28T06:01:55;26.77;;;14.67;;
62788;SDS011;66401;42.016;21.454;2023-02-28T06:04:21;28.00;;;13.97;;
62788;SDS011;66401;42.016;21.454;2023-02-28T06:06:47;27.70;;;13.70;;
62788;SDS011;66401;42.016;21.454;2023-02-28T06:09:14;28.90;;;14.60;;
62788;SDS011;66401;42.016;21.454;2023-02-28T06:11:41;25.37;;;14.13;;
62788;SDS011;66401;42.016;21.454;2023-02-28T06:14:07;28.73;;;14.40;;
62788;SDS011;66401;42.016;21.454;2023-02-28T06:16:37;27.50;;;13.83;;
62788;SDS011;66401;42.016;21.454;2023-02-28T06:19:03;25.57;;;12.57;;
62788;SDS011;66401;42.016;21.454;2023-02-28T06:21:29;30.07;;;13.57;;
62788;SDS011;66401;42.016;21.454;2023-02-28T06:23:56;28.90;;;13.67;;
62788;SDS011;66401;42.016;21.454;2023-02-28T06:26:22;27.03;;;12.17;;
62788;SDS011;66401;42.016;21.454;2023-02-28T06:28:48;25.27;;;12.73;;
62788;SDS011;66401;42.016;21.454;2023-02-28T06:31:15;23.73;;;12.07;;
62788;SDS011;66401;42.016;21.454;2023-02-28T06:33:43;23.47;;;13.10;;
62788;SDS011;66401;42.016;21.454;2023-02-28T06:36:10;24.23;;;12.30;;
62788;SDS011;66401;42.016;21.454;2023-02-28T06:38:37;23.83;;;11.97;;
62788;SDS011;66401;42.016;21.454;2023-02-28T06:41:04;23.33;;;12.40;;
62788;SDS011;66401;42.016;21.454;2023-02-28T06:43:31;20.47;;;10.97;;
62788;SDS011;66401;42.016;21.454;2023-02-28T06:45:59;22.47;;;12.07;;
62788;SDS011;66401;42.016;21.454;2023-02-28T06:48:26;28.03;;;12.67;;
62788;SDS011;66401;42.016;21.454;2023-02-28T06:50:52;25.37;;;12.60;;
62788;SDS011;66401;42.016;21.454;2023-02-28T06:53:25;25.00;;;12.57;;
62788;SDS011;66401;42.016;21.454;2023-02-28T06:55:51;24.57;;;12.93;;
62788;SDS011;66401;42.016;21.454;2023-02-28T06:58:17;29.17;;;13.57;;
62788;SDS011;66401;42.016;21.454;2023-02-28T07:00:44;30.23;;;14.47;;
62788;SDS011;66401;42.016;21.454;2023-02-28T07:03:11;26.40;;;13.40;;
62788;SDS011;66401;42.016;21.454;2023-02-28T07:05:38;25.17;;;13.13;;
62788;SDS011;66401;42.016;21.454;2023-02-28T07:08:04;33.17;;;13.87;;
62788;SDS011;66401;42.016;21.454;2023-02-28T07:10:31;34.47;;;14.93;;
62788;SDS011;66401;42.016;21.454;2023-02-28T07:12:58;25.13;;;13.67;;
62788;SDS011;66401;42.016;21.454;2023-02-28T07:15:24;29.80;;;15.00;;
62788;SDS011;66401;42.016;21.454;2023-02-28T07:17:50;28.33;;;14.30;;
62788;SDS011;66401;42.016;21.454;2023-02-28T07:20:15;32.63;;;15.50;;
62788;SDS011;66401;42.016;21.454;2023-02-28T07:22:41;28.97;;;14.60;;
62788;SDS011;66401;42.016;21.454;2023-02-28T07:25:07;28.80;;;15.27;;
62788;SDS011;66401;42.016;21.454;2023-02-28T07:27:33;27.37;;;15.03;;
62788;SDS011;66401;42.016;21.454;2023-02-28T07:29:59;31.43;;;15.73;;
62788;SDS011;66401;42.016;21.454;2023-02-28T07:32:27;28.33;;;15.27;;
62788;SDS011;66401;42.016;21.454;2023-02-28T07:34:53;26.63;;;14.77;;
62788;SDS011;66401;42.016;21.454;2023-02-28T07:37:19;32.40;;;15.30;;
62788;SDS011;66401;42.016;21.454;2023-02-28T07:39:45;34.90;;;16.20;;
62788;SDS011;66401;42.016;21.454;2023-02-28T07:42:10;32.60;;;14.87;;
62788;SDS011;66401;42.016;21.454;2023-02-28T07:44:37;27.67;;;14.90;;
62788;SDS011;66401;42.016;21.454;2023-02-28T07:47:06;41.10;;;17.53;;
62788;SDS011;66401;42.016;21.454;2023-02-28T07:49:33;36.70;;;17.20;;
62788;SDS011;66401;42.016;21.454;2023-02-28T07:52:00;37.77;;;16.60;;
62788;SDS011;66401;42.016;21.454;2023-02-28T07:54:25;30.17;;;16.17;;
62788;SDS011;66401;42.016;21.454;2023-02-28T07:56:51;32.93;;;15.37;;
62788;SDS011;66401;42.016;21.454;2023-02-28T07:59:16;30.30;;;15.63;;
62788;SDS011;66401;42.016;21.454;2023-02-28T08:01:42;40.57;;;18.70;;
62788;SDS011;66401;42.016;21.454;2023-02-28T08:04:09;33.57;;;15.50;;
62788;SDS011;66401;42.016;21.454;2023-02-28T08:06:35;33.83;;;18.00;;
62788;SDS011;66401;42.016;21.454;2023-02-28T08:09:00;36.20;;;17.37;;
62788;SDS011;66401;42.016;21.454;2023-02-28T08:11:26;36.97;;;17.70;;
62788;SDS011;66401;42.016;21.454;2023-02-28T08:13:51;35.33;;;17.37;;
62788;SDS011;66401;42.016;21.454;2023-02-28T08:16:17;34.27;;;18.03;;
62788;SDS011;66401;42.016;21.454;2023-02-28T08:18:47;40.07;;;19.17;;
62788;SDS011;66401;42.016;21.454;2023-02-28T08:21:16;41.23;;;18.43;;
62788;SDS011;66401;42.016;21.454;2023-02-28T08:23:43;39.77;;;19.53;;
62788;SDS011;66401;42.016;21.454;2023-02-28T08:26:08;38.97;;;17.77;;
62788;SDS011;66401;42.016;21.454;2023-02-28T08:28:34;37.77;;;16.40;;
62788;SDS011;66401;42.016;21.454;2023-02-28T08:30:59;37.27;;;18.27;;
62788;SDS011;66401;42.016;21.454;2023-02-28T08:33:25;42.03;;;18.60;;
62788;SDS011;66401;42.016;21.454;2023-02-28T08:35:53;34.27;;;17.93;;
62788;SDS011;66401;42.016;21.454;2023-02-28T08:38:19;36.57;;;17.67;;
62788;SDS011;66401;42.016;21.454;2023-02-28T08:40:45;47.57;;;24.03;;
62788;SDS011;66401;42.016;21.454;2023-02-28T08:43:10;39.07;;;21.07;;
62788;SDS011;66401;42.016;21.454;2023-02-28T08:45:36;50.83;;;22.50;;
62788;SDS011;66401;42.016;21.454;2023-02-28T08:48:01;41.83;;;19.07;;
62788;SDS011;66401;42.016;21.454;2023-02-28T08:50:27;33.87;;;18.40;;
62788;SDS011;66401;42.016;21.454;2023-02-28T08:52:53;38.67;;;19.83;;
62788;SDS011;66401;42.016;21.454;2023-02-28T08:55:18;54.27;;;26.67;;
62788;SDS011;66401;42.016;21.454;2023-02-28T08:57:43;45.83;;;21.23;;
62788;SDS011;66401;42.016;21.454;2023-02-28T09:00:09;46.00;;;22.00;;
62788;SDS011;66401;42.016;21.454;2023-02-28T09:02:38;42.43;;;21.73;;
62788;SDS011;66401;42.016;21.454;2023-02-28T09:05:04;44.37;;;21.57;;
62788;SDS011;66401;42.016;21.454;2023-02-28T09:07:30;40.40;;;20.93;;
62788;SDS011;66401;42.016;21.454;2023-02-28T09:09:56;41.23;;;19.90;;
62788;SDS011;66401;42.016;21.454;2023-02-28T09:12:28;38.90;;;19.90;;
62788;SDS011;66401;42.016;21.454;2023-02-28T09:14:58;43.20;;;21.80;;
62788;SDS011;66401;42.016;21.454;2023-02-28T09:17:23;42.17;;;20.97;;
62788;SDS011;66401;42.016;21.454;2023-02-28T09:19:49;38.70;;;20.87;;
62788;SDS011;66401;42.016;21.454;2023-02-28T09:22:14;49.50;;;20.77;;
62788;SDS011;66401;42.016;21.454;2023-02-28T09:24:40;42.70;;;20.33;;
62788;SDS011;66401;42.016;21.454;2023-02-28T09:27:06;41.00;;;21.10;;
62788;SDS011;66401;42.016;21.454;2023-02-28T09:29:32;38.77;;;19.80;;
62788;SDS011;66401;42.016;21.454;2023-02-28T09:31:59;39.30;;;20.93;;
62788;SDS011;66401;42.016;21.454;2023-02-28T09:34:25;50.53;;;22.43;;
62788;SDS011;66401;42.016;21.454;2023-02-28T09:36:51;45.90;;;21.33;;
62788;SDS011;66401;42.016;21.454;2023-02-28T09:39:20;41.33;;;20.13;;
62788;SDS011;66401;42.016;21.454;2023-02-28T09:41:52;46.43;;;22.97;;
62788;SDS011;66401;42.016;21.454;2023-02-28T09:44:24;44.07;;;22.43;;
62788;SDS011;66401;42.016;21.454;2023-02-28T09:46:54;47.57;;;21.57;;
62788;SDS011;66401;42.016;21.454;2023-02-28T09:49:25;51.43;;;23.70;;
62788;SDS011;66401;42.016;21.454;2023-02-28T09:52:44;49.13;;;23.13;;
62788;SDS011;66401;42.016;21.454;2023-02-28T09:55:24;42.80;;;22.53;;
62788;SDS011;66401;42.016;21.454;2023-02-28T09:57:50;46.17;;;22.67;;
62788;SDS011;66401;42.016;21.454;2023-02-28T10:05:41;48.47;;;22.60;;
62788;SDS011;66401;42.016;21.454;2023-02-28T10:10:42;43.30;;;22.47;;
62788;SDS011;66401;42.016;21.454;2023-02-28T10:13:16;44.17;;;21.83;;
62788;SDS011;66401;42.016;21.454;2023-02-28T10:16:08;50.03;;;22.57;;
62788;SDS011;66401;42.016;21.454;2023-02-28T10:18:43;46.23;;;22.13;;
62788;SDS011;66401;42.016;21.454;2023-02-28T10:21:17;45.33;;;21.80;;
62788;SDS011;66401;42.016;21.454;2023-02-28T10:24:00;51.93;;;22.73;;
62788;SDS011;66401;42.016;21.454;2023-02-28T10:26:28;39.20;;;21.23;;
62788;SDS011;66401;42.016;21.454;2023-02-28T10:28:57;46.57;;;23.17;;
62788;SDS011;66401;42.016;21.454;2023-02-28T10:31:23;44.10;;;23.97;;
62788;SDS011;66401;42.016;21.454;2023-02-28T10:33:48;45.20;;;25.43;;
62788;SDS011;66401;42.016;21.454;2023-02-28T10:36:15;44.67;;;23.10;;
62788;SDS011;66401;42.016;21.454;2023-02-28T10:38:43;55.13;;;23.53;;
62788;SDS011;66401;42.016;21.454;2023-02-28T10:41:11;44.47;;;22.40;;
62788;SDS011;66401;42.016;21.454;2023-02-28T10:43:42;44.30;;;23.73;;
62788;SDS011;66401;42.016;21.454;2023-02-28T10:48:48;46.47;;;24.33;;
62788;SDS011;66401;42.016;21.454;2023-02-28T10:51:25;50.30;;;23.33;;
62788;SDS011;66401;42.016;21.454;2023-02-28T10:54:00;45.60;;;22.83;;
62788;SDS011;66401;42.016;21.454;2023-02-28T10:56:25;44.07;;;21.37;;
62788;SDS011;66401;42.016;21.454;2023-02-28T10:58:58;51.13;;;23.97;;
62788;SDS011;66401;42.016;21.454;2023-02-28T11:01:36;44.37;;;22.03;;
62788;SDS011;66401;42.016;21.454;2023-02-28T11:04:03;49.07;;;22.43;;
62788;SDS011;66401;42.016;21.454;2023-02-28T11:06:41;40.47;;;22.30;;
62788;SDS011;66401;42.016;21.454;2023-02-28T11:09:16;50.23;;;23.97;;
62788;SDS011;66401;42.016;21.454;2023-02-28T11:11:47;50.10;;;23.43;;
62788;SDS011;66401;42.016;21.454;2023-02-28T11:14:17;46.73;;;22.93;;
62788;SDS011;66401;42.016;21.454;2023-02-28T11:16:50;39.43;;;22.33;;
62788;SDS011;66401;42.016;21.454;2023-02-28T11:19:21;41.40;;;22.73;;
62788;SDS011;66401;42.016;21.454;2023-02-28T11:22:00;43.97;;;24.20;;
62788;SDS011;66401;42.016;21.454;2023-02-28T11:24:28;46.90;;;23.07;;
62788;SDS011;66401;42.016;21.454;2023-02-28T11:26:58;42.13;;;22.80;;
62788;SDS011;66401;42.016;21.454;2023-02-28T11:29:24;40.50;;;21.33;;
62788;SDS011;66401;42.016;21.454;2023-02-28T11:32:11;42.80;;;22.23;;
62788;SDS011;66401;42.016;21.454;2023-02-28T11:34:58;35.83;;;20.47;;
62788;SDS011;66401;42.016;21.454;2023-02-28T11:37:39;39.50;;;21.60;;
62788;SDS011;66401;42.016;21.454;2023-02-28T11:40:14;45.47;;;22.00;;
62788;SDS011;66401;42.016;21.454;2023-02-28T11:48:14;42.30;;;21.57;;
62788;SDS011;66401;42.016;21.454;2023-02-28T12:25:55;41.13;;;19.03;;
62788;SDS011;66401;42.016;21.454;2023-02-28T12:28:25;37.97;;;18.53;;
62788;SDS011;66401;42.016;21.454;2023-02-28T12:33:53;40.70;;;20.07;;
62788;SDS011;66401;42.016;21.454;2023-02-28T12:36:25;37.63;;;19.50;;
62788;SDS011;66401;42.016;21.454;2023-02-28T12:38:55;32.67;;;18.20;;
62788;SDS011;66401;42.016;21.454;2023-02-28T12:47:00;35.43;;;19.53;;
62788;SDS011;66401;42.016;21.454;2023-02-28T12:49:33;30.87;;;18.20;;
62788;SDS011;66401;42.016;21.454;2023-02-28T12:52:04;34.30;;;19.07;;
62788;SDS011;66401;42.016;21.454;2023-02-28T12:59:59;25.40;;;13.93;;
62788;SDS011;66401;42.016;21.454;2023-02-28T13:10:42;17.67;;;10.97;;
62788;SDS011;66401;42.016;21.454;2023-02-28T13:13:14;19.17;;;9.70;;
62788;SDS011;66401;42.016;21.454;2023-02-28T13:15:56;26.47;;;12.93;;
62788;SDS011;66401;42.016;21.454;2023-02-28T13:18:37;25.87;;;13.27;;
62788;SDS011;66401;42.016;21.454;2023-02-28T13:21:06;26.17;;;13.47;;
62788;SDS011;66401;42.016;21.454;2023-02-28T13:26:01;25.50;;;12.07;;
62788;SDS011;66401;42.016;21.454;2023-02-28T13:31:18;21.10;;;11.60;;
62788;SDS011;66401;42.016;21.454;2023-02-28T13:38:46;23.10;;;11.43;;
62788;SDS011;66401;42.016;21.454;2023-02-28T13:44:04;24.87;;;12.73;;
62788;SDS011;66401;42.016;21.454;2023-02-28T14:08:57;25.07;;;12.27;;
62788;SDS011;66401;42.016;21.454;2023-02-28T14:11:42;27.63;;;12.40;;
62788;SDS011;66401;42.016;21.454;2023-02-28T14:14:10;25.40;;;12.93;;
62788;SDS011;66401;42.016;21.454;2023-02-28T14:17:03;27.80;;;12.73;;
62788;SDS011;66401;42.016;21.454;2023-02-28T14:19:34;20.20;;;11.80;;
62788;SDS011;66401;42.016;21.454;2023-02-28T14:25:33;29.13;;;13.23;;
62788;SDS011;66401;42.016;21.454;2023-02-28T14:36:26;27.10;;;14.50;;
62788;SDS011;66401;42.016;21.454;2023-02-28T14:39:16;31.03;;;13.97;;
62788;SDS011;66401;42.016;21.454;2023-02-28T14:41:45;33.00;;;14.10;;
62788;SDS011;66401;42.016;21.454;2023-02-28T14:44:21;29.50;;;14.57;;
62788;SDS011;66401;42.016;21.454;2023-02-28T14:46:53;26.17;;;13.10;;
62788;SDS011;66401;42.016;21.454;2023-02-28T14:52:00;28.63;;;14.70;;
62788;SDS011;66401;42.016;21.454;2023-02-28T14:54:45;27.17;;;13.90;;
62788;SDS011;66401;42.016;21.454;2023-02-28T15:00:04;33.80;;;14.70;;
62788;SDS011;66401;42.016;21.454;2023-02-28T15:02:39;32.80;;;14.80;;
62788;SDS011;66401;42.016;21.454;2023-02-28T15:07:45;33.73;;;15.40;;
62788;SDS011;66401;42.016;21.454;2023-02-28T15:12:54;33.03;;;15.07;;
62788;SDS011;66401;42.016;21.454;2023-02-28T15:15:22;30.27;;;15.50;;
62788;SDS011;66401;42.016;21.454;2023-02-28T15:17:53;25.87;;;13.57;;
62788;SDS011;66401;42.016;21.454;2023-02-28T15:20:21;28.50;;;14.80;;
62788;SDS011;66401;42.016;21.454;2023-02-28T15:22:49;40.33;;;16.03;;
62788;SDS011;66401;42.016;21.454;2023-02-28T15:25:18;36.43;;;15.83;;
62788;SDS011;66401;42.016;21.454;2023-02-28T15:27:49;27.30;;;14.33;;
62788;SDS011;66401;42.016;21.454;2023-02-28T15:30:18;33.30;;;16.17;;
62788;SDS011;66401;42.016;21.454;2023-02-28T15:35:36;37.40;;;16.83;;
62788;SDS011;66401;42.016;21.454;2023-02-28T15:38:03;35.10;;;16.40;;
62788;SDS011;66401;42.016;21.454;2023-02-28T15:40:38;39.77;;;15.10;;
62788;SDS011;66401;42.016;21.454;2023-02-28T15:43:12;39.17;;;16.07;;
62788;SDS011;66401;42.016;21.454;2023-02-28T15:48:26;32.77;;;16.53;;
62788;SDS011;66401;42.016;21.454;2023-02-28T15:51:01;34.07;;;17.07;;
62788;SDS011;66401;42.016;21.454;2023-02-28T15:53:31;34.10;;;16.23;;
62788;SDS011;66401;42.016;21.454;2023-02-28T15:56:02;36.00;;;16.57;;
62788;SDS011;66401;42.016;21.454;2023-02-28T15:58:30;34.80;;;15.40;;
62788;SDS011;66401;42.016;21.454;2023-02-28T16:01:38;32.50;;;15.50;;
62788;SDS011;66401;42.016;21.454;2023-02-28T16:03:51;37.77;;;15.00;;
62788;SDS011;66401;42.016;21.454;2023-02-28T16:06:38;29.47;;;14.40;;
62788;SDS011;66401;42.016;21.454;2023-02-28T16:09:08;30.37;;;14.10;;
62788;SDS011;66401;42.016;21.454;2023-02-28T16:11:37;25.47;;;13.20;;
62788;SDS011;66401;42.016;21.454;2023-02-28T16:14:06;38.37;;;14.47;;
62788;SDS011;66401;42.016;21.454;2023-02-28T16:16:31;31.87;;;15.27;;
62788;SDS011;66401;42.016;21.454;2023-02-28T16:18:58;34.27;;;15.00;;
62788;SDS011;66401;42.016;21.454;2023-02-28T16:21:24;35.33;;;15.60;;
62788;SDS011;66401;42.016;21.454;2023-02-28T16:23:50;32.70;;;14.30;;
62788;SDS011;66401;42.016;21.454;2023-02-28T16:26:20;30.77;;;14.57;;
62788;SDS011;66401;42.016;21.454;2023-02-28T16:28:49;32.13;;;14.17;;
62788;SDS011;66401;42.016;21.454;2023-02-28T16:31:16;28.53;;;14.77;;
62788;SDS011;66401;42.016;21.454;2023-02-28T16:33:43;35.07;;;15.03;;
62788;SDS011;66401;42.016;21.454;2023-02-28T16:36:20;36.27;;;14.87;;
62788;SDS011;66401;42.016;21.454;2023-02-28T16:38:48;35.33;;;14.87;;
62788;SDS011;66401;42.016;21.454;2023-02-28T16:41:17;32.23;;;15.77;;
62788;SDS011;66401;42.016;21.454;2023-02-28T16:43:46;35.43;;;16.57;;
62788;SDS011;66401;42.016;21.454;2023-02-28T16:46:13;32.53;;;16.63;;
62788;SDS011;66401;42.016;21.454;2023-02-28T16:48:39;30.97;;;14.70;;
62788;SDS011;66401;42.016;21.454;2023-02-28T16:51:11;30.80;;;15.50;;
62788;SDS011;66401;42.016;21.454;2023-02-28T16:53:38;36.97;;;15.90;;
62788;SDS011;66401;42.016;21.454;2023-02-28T16:56:03;33.27;;;16.03;;
62788;SDS011;66401;42.016;21.454;2023-02-28T16:58:31;39.13;;;17.37;;
62788;SDS011;66401;42.016;21.454;2023-02-28T17:01:00;32.70;;;16.73;;
62788;SDS011;66401;42.016;21.454;2023-02-28T17:03:27;36.60;;;17.00;;
62788;SDS011;66401;42.016;21.454;2023-02-28T17:05:53;34.60;;;16.70;;
62788;SDS011;66401;42.016;21.454;2023-02-28T17:08:19;34.43;;;16.57;;
62788;SDS011;66401;42.016;21.454;2023-02-28T17:10:45;34.27;;;17.40;;
62788;SDS011;66401;42.016;21.454;2023-02-28T17:13:11;43.17;;;19.67;;
62788;SDS011;66401;42.016;21.454;2023-02-28T17:15:37;38.43;;;17.97;;
62788;SDS011;66401;42.016;21.454;2023-02-28T17:18:03;33.57;;;18.53;;
62788;SDS011;66401;42.016;21.454;2023-02-28T17:20:29;40.43;;;18.57;;